createdAt,value
2023-04-03T00:00:38.438Z,10.60
2023-04-03T00:03:05.107Z,10.41
2023-04-03T00:05:31.729Z,10.64
2023-04-03T00:07:58.206Z,10.22
2023-04-03T00:10:24.841Z,10.00
2023-04-03T00:12:51.155Z,10.08
2023-04-03T00:15:17.488Z,10.08
2023-04-03T00:17:43.848Z,10.09
2023-04-03T00:20:10.873Z,9.20
2023-04-03T00:22:37.251Z,9.01
2023-04-03T00:25:04.394Z,9.31
2023-04-03T00:27:31.146Z,9.35
2023-04-03T00:29:57.568Z,9.07
2023-04-03T00:32:24.140Z,9.31
2023-04-03T00:34:50.742Z,9.33
2023-04-03T00:37:17.063Z,9.20
2023-04-03T00:39:43.498Z,9.27
2023-04-03T00:42:09.940Z,9.23
2023-04-03T00:44:36.277Z,8.89
2023-04-03T00:47:04.956Z,8.84
2023-04-03T00:49:31.360Z,8.75
2023-04-03T00:51:57.869Z,8.93
2023-04-03T00:54:24.163Z,8.47
2023-04-03T00:56:52.749Z,8.81
2023-04-03T00:59:26.217Z,9.17
2023-04-03T01:01:55.865Z,8.76
2023-04-03T01:04:32.401Z,9.28
2023-04-03T01:07:02.384Z,9.04
2023-04-03T01:09:29.780Z,9.15
2023-04-03T01:12:13.912Z,8.51
2023-04-03T01:14:40.438Z,8.58
2023-04-03T01:17:33.660Z,8.57
2023-04-03T01:20:32.418Z,8.33
2023-04-03T01:23:11.064Z,8.97
2023-04-03T01:25:41.600Z,8.52
2023-04-03T01:28:11.550Z,8.68
2023-04-03T01:30:57.842Z,8.14
2023-04-03T01:33:24.548Z,8.77
2023-04-03T01:35:51.199Z,9.05
2023-04-03T01:38:17.710Z,8.70
2023-04-03T01:40:44.194Z,8.37
2023-04-03T01:43:11.067Z,8.41
2023-04-03T01:45:37.573Z,8.89
2023-04-03T01:48:04.066Z,8.83
2023-04-03T01:50:30.439Z,9.28
2023-04-03T01:52:56.861Z,9.31
2023-04-03T01:55:23.271Z,8.81
2023-04-03T01:57:49.727Z,8.98
2023-04-03T02:00:16.469Z,8.30
2023-04-03T02:02:42.965Z,8.60
2023-04-03T02:05:09.694Z,8.15
2023-04-03T02:07:36.129Z,8.39
2023-04-03T02:10:02.665Z,7.58
2023-04-03T02:12:29.062Z,7.71
2023-04-03T02:14:55.564Z,7.56
2023-04-03T02:17:22.088Z,7.91
2023-04-03T02:19:48.686Z,7.75
2023-04-03T02:22:15.160Z,7.84
2023-04-03T02:24:42.385Z,7.88
2023-04-03T02:27:08.796Z,7.82
2023-04-03T02:29:35.313Z,7.81
2023-04-03T02:32:01.841Z,8.01
2023-04-03T02:34:28.308Z,8.84
2023-04-03T02:36:54.710Z,8.75
2023-04-03T02:39:21.276Z,9.47
2023-04-03T02:41:47.637Z,8.49
2023-04-03T02:44:14.259Z,8.69
2023-04-03T02:46:40.745Z,8.72
2023-04-03T02:49:07.377Z,8.85
2023-04-03T02:51:33.831Z,8.69
2023-04-03T02:54:00.601Z,8.58
2023-04-03T02:56:27.806Z,8.05
2023-04-03T02:58:54.234Z,8.68
2023-04-03T03:01:21.517Z,8.19
2023-04-03T03:03:47.924Z,8.68
2023-04-03T03:06:16.307Z,8.84
2023-04-03T03:08:43.021Z,9.31
2023-04-03T03:11:10.399Z,8.67
2023-04-03T03:13:36.881Z,8.29
2023-04-03T03:16:03.688Z,8.77
2023-04-03T03:18:30.426Z,9.06
2023-04-03T03:20:58.866Z,7.98
2023-04-03T03:23:27.050Z,8.31
2023-04-03T03:26:01.049Z,8.26
2023-04-03T03:28:27.584Z,7.95
2023-04-03T03:30:54.126Z,7.99
2023-04-03T03:33:20.621Z,8.06
2023-04-03T03:35:47.484Z,8.34
2023-04-03T03:38:13.948Z,8.14
2023-04-03T03:40:40.678Z,8.14
2023-04-03T03:43:07.149Z,7.65
2023-04-03T03:45:33.587Z,8.24
2023-04-03T03:48:00.069Z,8.73
2023-04-03T03:50:26.619Z,9.26
2023-04-03T03:52:53.074Z,8.49
2023-04-03T03:55:19.528Z,7.80
2023-04-03T03:57:46.037Z,8.18
2023-04-03T04:00:12.890Z,8.33
2023-04-03T04:02:39.484Z,8.68
2023-04-03T04:05:06.207Z,7.80
2023-04-03T04:07:32.597Z,8.16
2023-04-03T04:09:59.025Z,7.53
2023-04-03T04:12:25.457Z,7.43
2023-04-03T04:14:51.873Z,7.48
2023-04-03T04:17:18.469Z,7.87
2023-04-03T04:19:44.897Z,7.60
2023-04-03T04:22:11.372Z,8.02
2023-04-03T04:24:38.611Z,8.58
2023-04-03T04:27:06.184Z,8.86
2023-04-03T04:29:36.585Z,8.94
2023-04-03T04:32:04.022Z,9.66
2023-04-03T04:34:31.091Z,9.43
2023-04-03T04:36:57.812Z,9.20
2023-04-03T04:39:24.445Z,9.12
2023-04-03T04:41:50.836Z,9.50
2023-04-03T04:44:17.351Z,9.15
2023-04-03T04:46:44.086Z,8.72
2023-04-03T04:49:10.754Z,9.15
2023-04-03T04:51:48.320Z,8.35
2023-04-03T04:54:17.985Z,8.31
2023-04-03T04:56:44.414Z,8.40
2023-04-03T04:59:10.971Z,8.39
2023-04-03T05:01:37.604Z,8.08
2023-04-03T05:04:04.095Z,8.30
2023-04-03T05:06:32.708Z,8.46
2023-04-03T05:08:59.589Z,8.07
2023-04-03T05:11:26.877Z,8.45
2023-04-03T05:13:53.622Z,8.90
2023-04-03T05:16:20.376Z,8.55
2023-04-03T05:18:46.883Z,8.55
2023-04-03T05:21:13.418Z,7.93
2023-04-03T05:23:39.828Z,8.53
2023-04-03T05:26:06.893Z,8.21
2023-04-03T05:28:33.406Z,8.80
2023-04-03T05:31:00.243Z,8.55
2023-04-03T05:33:27.278Z,8.63
2023-04-03T05:35:54.339Z,9.28
2023-04-03T05:38:21.391Z,8.22
2023-04-03T05:40:47.897Z,8.20
2023-04-03T05:43:14.386Z,8.50
2023-04-03T05:45:40.893Z,8.57
2023-04-03T05:48:07.382Z,8.28
2023-04-03T05:50:33.823Z,8.47
2023-04-03T05:53:00.385Z,8.24
2023-04-03T05:55:26.801Z,8.35
2023-04-03T05:57:53.280Z,8.62
2023-04-03T06:00:20.030Z,9.30
2023-04-03T06:02:46.547Z,9.79
2023-04-03T06:05:14.133Z,9.89
2023-04-03T06:07:40.848Z,10.39
2023-04-03T06:10:07.853Z,9.74
2023-04-03T06:12:34.274Z,10.17
2023-04-03T06:15:00.690Z,10.40
2023-04-03T06:17:27.992Z,10.38
2023-04-03T06:19:54.505Z,10.29
2023-04-03T06:22:20.911Z,10.79
2023-04-03T06:24:47.524Z,10.33
2023-04-03T06:27:14.040Z,10.15
2023-04-03T06:29:40.877Z,10.16
2023-04-03T06:32:07.317Z,9.99
2023-04-03T06:34:34.426Z,11.02
2023-04-03T06:37:00.912Z,10.43
2023-04-03T06:39:28.268Z,9.95
2023-04-03T06:41:54.749Z,10.32
2023-04-03T06:44:21.131Z,10.14
2023-04-03T06:46:47.786Z,10.62
2023-04-03T06:49:14.293Z,11.06
2023-04-03T06:51:40.862Z,11.24
2023-04-03T06:54:09.342Z,11.16
2023-04-03T06:56:36.541Z,11.32
2023-04-03T06:59:03.733Z,10.86
2023-04-03T07:01:30.877Z,11.08
2023-04-03T07:03:57.626Z,11.36
2023-04-03T07:06:24.256Z,11.39
2023-04-03T07:08:51.369Z,10.60
2023-04-03T07:11:17.918Z,10.71
2023-04-03T07:13:44.325Z,11.02
2023-04-03T07:16:11.086Z,11.69
2023-04-03T07:18:37.549Z,11.93
2023-04-03T07:21:04.977Z,11.53
2023-04-03T07:23:31.510Z,11.30
2023-04-03T07:25:58.042Z,11.85
2023-04-03T07:28:25.330Z,11.98
2023-04-03T07:30:54.242Z,12.97
2023-04-03T07:33:22.727Z,13.52
2023-04-03T07:35:49.374Z,13.40
2023-04-03T07:38:17.038Z,13.77
2023-04-03T07:40:48.018Z,14.07
2023-04-03T07:43:15.590Z,13.86
2023-04-03T07:45:42.206Z,14.28
2023-04-03T07:48:08.606Z,14.31
2023-04-03T07:50:35.038Z,14.06
2023-04-03T07:53:01.765Z,14.23
2023-04-03T07:55:28.200Z,14.73
2023-04-03T07:57:54.660Z,14.56
2023-04-03T08:00:21.360Z,14.04
2023-04-03T08:02:52.626Z,14.24
2023-04-03T08:05:20.105Z,14.56
2023-04-03T08:07:47.616Z,14.55
2023-04-03T08:10:15.143Z,15.34
2023-04-03T08:12:41.922Z,15.32
2023-04-03T08:15:09.655Z,15.20
2023-04-03T08:17:36.531Z,15.39
2023-04-03T08:20:05.430Z,14.84
2023-04-03T08:22:32.077Z,15.42
2023-04-03T08:24:59.674Z,14.59
2023-04-03T08:27:28.383Z,14.53
2023-04-03T08:29:55.512Z,14.31
2023-04-03T08:32:21.909Z,15.00
2023-04-03T08:34:48.336Z,15.05
2023-04-03T08:37:14.799Z,15.37
2023-04-03T08:39:41.305Z,14.87
2023-04-03T08:42:17.221Z,14.89
2023-04-03T08:45:15.875Z,13.41
2023-04-03T08:47:55.383Z,14.38
2023-04-03T08:50:30.984Z,15.03
2023-04-03T08:52:59.094Z,15.41
2023-04-03T08:55:28.643Z,14.07
2023-04-03T08:58:22.261Z,13.86
2023-04-03T09:00:52.008Z,13.09
2023-04-03T09:03:20.814Z,13.35
2023-04-03T09:06:09.151Z,14.67
2023-04-03T09:08:48.327Z,15.21
2023-04-03T09:11:24.714Z,16.03
2023-04-03T09:14:15.524Z,16.55
2023-04-03T09:17:01.856Z,16.01
2023-04-03T09:19:31.436Z,15.62
2023-04-03T09:21:59.606Z,14.10
2023-04-03T09:24:26.480Z,14.14
2023-04-03T09:27:00.277Z,15.55
2023-04-03T09:29:27.119Z,16.11
2023-04-03T09:31:57.778Z,16.72
2023-04-03T09:34:27.448Z,15.51
2023-04-03T09:36:56.656Z,15.75
2023-04-03T09:39:25.903Z,15.15
2023-04-03T09:42:01.216Z,13.59
2023-04-03T09:44:33.825Z,15.48
2023-04-03T09:47:00.497Z,15.32
2023-04-03T09:49:27.198Z,15.92
2023-04-03T09:51:54.704Z,15.86
2023-04-03T09:54:38.383Z,16.84
2023-04-03T09:57:12.686Z,16.54
2023-04-03T10:00:01.490Z,16.03
2023-04-03T10:02:40.610Z,15.57
2023-04-03T10:05:30.567Z,16.01
2023-04-03T10:08:12.405Z,16.13
2023-04-03T10:10:39.453Z,16.39
2023-04-03T10:13:20.593Z,16.62
2023-04-03T10:16:18.562Z,16.63
2023-04-03T10:18:48.687Z,17.15
2023-04-03T10:21:32.090Z,16.10
2023-04-03T10:24:07.060Z,14.60
2023-04-03T10:26:38.728Z,14.11
2023-04-03T10:29:42.655Z,13.29
2023-04-03T10:32:43.007Z,13.19
2023-04-03T10:35:19.636Z,13.06
2023-04-03T10:38:06.629Z,13.14
2023-04-03T10:40:48.310Z,13.34
2023-04-03T10:43:23.815Z,13.92
2023-04-03T10:45:58.476Z,14.15
2023-04-03T10:48:37.115Z,15.63
2023-04-03T10:51:23.303Z,15.78
2023-04-03T10:54:10.431Z,13.57
2023-04-03T10:56:41.269Z,12.92
2023-04-03T10:59:28.317Z,14.31
2023-04-03T11:01:58.212Z,16.07
2023-04-03T11:04:28.759Z,15.60
2023-04-03T11:07:02.910Z,15.65
2023-04-03T11:09:32.747Z,14.80
2023-04-03T11:12:14.346Z,14.77
2023-04-03T11:14:41.314Z,15.65
2023-04-03T11:17:24.898Z,16.30
2023-04-03T11:20:07.954Z,17.36
2023-04-03T11:22:44.047Z,16.72
2023-04-03T11:25:11.372Z,17.57
2023-04-03T11:27:57.107Z,16.22
2023-04-03T11:30:32.397Z,14.92
2023-04-03T11:33:07.277Z,16.19
2023-04-03T11:35:34.441Z,16.91
2023-04-03T11:38:01.704Z,16.58
2023-04-03T11:40:36.054Z,15.10
2023-04-03T11:43:05.256Z,16.09
2023-04-03T11:45:37.136Z,14.87
2023-04-03T11:48:29.660Z,14.83
2023-04-03T11:50:56.977Z,13.63
2023-04-03T11:53:32.479Z,13.61
2023-04-03T11:56:01.298Z,14.17
2023-04-03T11:58:33.256Z,14.26
2023-04-03T12:01:08.811Z,14.13
2023-04-03T12:03:41.495Z,15.74
2023-04-03T12:06:07.963Z,16.71
2023-04-03T12:08:34.408Z,17.13
2023-04-03T12:11:09.974Z,16.52
2023-04-03T12:13:41.256Z,15.84
2023-04-03T12:16:27.930Z,14.24
2023-04-03T12:18:54.396Z,14.29
2023-04-03T12:21:52.917Z,14.07
2023-04-03T12:24:22.288Z,14.86
2023-04-03T12:27:20.157Z,13.77
2023-04-03T12:30:04.894Z,13.85
2023-04-03T12:32:40.484Z,14.45
2023-04-03T12:35:29.134Z,16.43
2023-04-03T12:38:16.012Z,17.29
2023-04-03T12:41:04.227Z,17.51
2023-04-03T12:43:51.560Z,16.84
2023-04-03T12:46:23.342Z,15.35
2023-04-03T12:48:56.217Z,15.18
2023-04-03T12:51:29.532Z,14.48
2023-04-03T12:54:03.003Z,15.07
2023-04-03T12:56:33.635Z,14.65
2023-04-03T12:59:28.741Z,15.21
2023-04-03T13:01:59.912Z,15.21
2023-04-03T13:04:28.018Z,15.83
2023-04-03T13:06:54.557Z,16.41
2023-04-03T13:09:28.667Z,15.00
2023-04-03T13:12:02.349Z,15.85
2023-04-03T13:14:29.998Z,15.69
2023-04-03T13:16:58.551Z,16.40
2023-04-03T13:19:29.578Z,17.02
2023-04-03T13:22:02.335Z,17.46
2023-04-03T13:24:30.889Z,17.71
2023-04-03T13:26:57.441Z,16.80
2023-04-03T13:29:33.080Z,16.12
2023-04-03T13:32:01.379Z,15.74
2023-04-03T13:34:38.324Z,15.17
2023-04-03T13:37:05.796Z,14.66
2023-04-03T13:39:40.313Z,14.42
2023-04-03T13:42:37.593Z,14.57
2023-04-03T13:45:29.059Z,16.54
2023-04-03T13:48:22.177Z,16.96
2023-04-03T13:51:02.424Z,17.16
2023-04-03T13:53:30.874Z,17.59
2023-04-03T13:56:00.847Z,18.77
2023-04-03T13:58:32.155Z,17.42
2023-04-03T14:01:08.034Z,15.68
2023-04-03T14:03:42.403Z,15.68
2023-04-03T14:06:13.539Z,15.59
2023-04-03T14:08:43.287Z,14.79
2023-04-03T14:11:14.881Z,14.59
2023-04-03T14:13:41.620Z,14.29
2023-04-03T14:16:15.627Z,16.02
2023-04-03T14:18:42.473Z,15.94
2023-04-03T14:21:11.715Z,14.47
2023-04-03T14:23:38.750Z,15.82
2023-04-03T14:26:10.965Z,15.62
2023-04-03T14:28:37.404Z,16.91
2023-04-03T14:31:04.137Z,16.56
2023-04-03T14:33:32.115Z,16.98
2023-04-03T14:35:58.593Z,17.70
2023-04-03T14:38:27.801Z,15.89
2023-04-03T14:40:57.072Z,14.26
2023-04-03T14:43:26.262Z,15.26
2023-04-03T14:45:52.920Z,15.34
2023-04-03T14:48:23.030Z,14.57
2023-04-03T14:51:04.662Z,14.61
2023-04-03T14:53:38.789Z,14.96
2023-04-03T14:56:23.265Z,16.33
2023-04-03T14:58:51.826Z,16.55
2023-04-03T15:01:18.912Z,14.89
2023-04-03T15:03:45.882Z,17.18
2023-04-03T15:06:14.202Z,18.30
2023-04-03T15:08:43.027Z,18.35
2023-04-03T15:11:10.957Z,19.30
2023-04-03T15:13:38.296Z,18.97
2023-04-03T15:16:06.214Z,18.64
2023-04-03T15:18:38.172Z,17.32
2023-04-03T15:21:05.594Z,16.55
2023-04-03T15:23:32.238Z,14.63
2023-04-03T15:25:58.821Z,14.96
2023-04-03T15:28:36.647Z,15.94
2023-04-03T15:31:03.450Z,16.49
2023-04-03T15:33:30.073Z,16.61
2023-04-03T15:36:06.520Z,16.75
2023-04-03T15:38:34.583Z,17.80
2023-04-03T15:41:01.076Z,16.55
2023-04-03T15:43:27.627Z,15.77
2023-04-03T15:45:58.016Z,17.34
2023-04-03T15:48:24.511Z,17.25
2023-04-03T15:50:51.086Z,15.87
2023-04-03T15:53:17.523Z,15.10
2023-04-03T15:55:44.010Z,15.68
2023-04-03T15:58:12.078Z,16.19
2023-04-03T16:00:39.303Z,17.04
2023-04-03T16:03:09.936Z,16.65
2023-04-03T16:05:37.585Z,16.25
2023-04-03T16:08:04.708Z,16.78
2023-04-03T16:10:31.339Z,17.52
2023-04-03T16:12:57.877Z,17.72
2023-04-03T16:15:25.344Z,16.36
2023-04-03T16:17:52.121Z,16.43
2023-04-03T16:20:19.643Z,15.87
2023-04-03T16:22:46.341Z,15.78
2023-04-03T16:25:13.188Z,15.22
2023-04-03T16:27:40.962Z,16.40
2023-04-03T16:30:08.393Z,16.19
2023-04-03T16:32:35.630Z,16.48
2023-04-03T16:37:33.714Z,16.28
2023-04-03T16:40:00.163Z,16.05
2023-04-03T16:42:26.625Z,16.11
2023-04-03T16:44:52.995Z,15.85
2023-04-03T16:47:20.685Z,14.69
2023-04-03T16:49:48.124Z,15.97
2023-04-03T16:52:15.353Z,15.78
2023-04-03T16:54:42.021Z,16.84
2023-04-03T16:57:08.600Z,15.29
2023-04-03T16:59:35.395Z,16.30
2023-04-03T17:02:01.866Z,16.06
2023-04-03T17:04:28.329Z,15.77
2023-04-03T17:06:55.675Z,15.95
2023-04-03T17:09:23.646Z,15.94
2023-04-03T17:11:50.204Z,15.47
2023-04-03T17:14:16.706Z,16.01
2023-04-03T17:16:43.415Z,16.13
2023-04-03T17:19:09.928Z,15.39
2023-04-03T17:21:36.685Z,15.47
2023-04-03T17:24:04.781Z,14.93
2023-04-03T17:26:31.399Z,16.59
2023-04-03T17:28:57.871Z,17.25
2023-04-03T17:31:24.415Z,16.97
2023-04-03T17:33:50.915Z,16.71
2023-04-03T17:36:17.317Z,15.95
2023-04-03T17:38:43.761Z,16.13
2023-04-03T17:41:10.432Z,13.85
2023-04-03T17:43:36.939Z,14.93
2023-04-03T17:46:05.593Z,14.42
2023-04-03T17:48:33.137Z,15.14
2023-04-03T17:51:00.204Z,14.85
2023-04-03T17:53:27.642Z,14.39
2023-04-03T17:55:54.080Z,14.19
2023-04-03T17:58:20.810Z,13.69
2023-04-03T18:00:47.216Z,15.37
2023-04-03T18:03:13.962Z,15.47
2023-04-03T18:05:40.648Z,14.85
2023-04-03T18:08:07.537Z,15.75
2023-04-03T18:10:36.656Z,15.70
2023-04-03T18:13:05.760Z,15.90
2023-04-03T18:15:32.274Z,16.19
2023-04-03T18:17:58.724Z,16.13
2023-04-03T18:20:25.197Z,16.25
2023-04-03T18:22:52.504Z,15.99
2023-04-03T18:25:19.245Z,16.18
2023-04-03T18:27:46.740Z,15.81
2023-04-03T18:30:15.390Z,15.65
2023-04-03T18:32:41.801Z,15.16
2023-04-03T18:35:09.458Z,15.28
2023-04-03T18:37:36.165Z,15.11
2023-04-03T18:40:02.663Z,14.75
2023-04-03T18:42:29.052Z,14.89
2023-04-03T18:44:58.671Z,14.94
2023-04-03T18:47:25.296Z,14.75
2023-04-03T18:49:51.717Z,14.73
2023-04-03T18:52:18.142Z,14.62
2023-04-03T18:54:44.651Z,14.71
2023-04-03T18:57:11.397Z,14.74
2023-04-03T18:59:38.617Z,14.57
2023-04-03T19:02:06.113Z,14.45
2023-04-03T19:04:32.545Z,14.37
2023-04-03T19:06:59.096Z,14.35
2023-04-03T19:09:26.220Z,14.24
2023-04-03T19:11:52.632Z,13.98
2023-04-03T19:14:19.016Z,13.80
2023-04-03T19:16:45.486Z,14.25
2023-04-03T19:19:12.101Z,14.06
2023-04-03T19:21:41.305Z,14.06
2023-04-03T19:24:09.885Z,14.55
2023-04-03T19:26:36.402Z,14.11
2023-04-03T19:29:02.863Z,14.40
2023-04-03T19:34:04.008Z,13.58
2023-04-03T19:36:31.211Z,13.73
2023-04-03T19:38:57.786Z,14.18
2023-04-03T19:41:25.797Z,14.08
2023-04-03T19:43:54.322Z,14.03
2023-04-03T19:46:25.315Z,13.90
2023-04-03T19:48:52.232Z,13.53
2023-04-03T19:51:18.708Z,13.79
2023-04-03T19:53:45.196Z,13.53
2023-04-03T19:56:11.750Z,13.73
2023-04-03T19:58:39.431Z,13.41
2023-04-03T20:01:06.104Z,13.45
2023-04-03T20:03:33.389Z,13.19
2023-04-03T20:06:00.492Z,13.08
2023-04-03T20:08:28.612Z,12.85
2023-04-03T20:10:55.960Z,12.81
2023-04-03T20:13:22.477Z,13.09
2023-04-03T20:15:49.044Z,12.86
2023-04-03T20:18:19.639Z,12.85
2023-04-03T20:20:52.658Z,12.61
2023-04-03T20:23:19.544Z,12.42
2023-04-03T20:25:57.679Z,12.29
2023-04-03T20:28:33.391Z,12.28
2023-04-03T20:31:02.181Z,12.29
2023-04-03T20:33:28.661Z,12.54
2023-04-03T20:35:56.796Z,12.16
2023-04-03T20:38:23.483Z,12.52
2023-04-03T20:40:49.997Z,12.46
2023-04-03T20:43:17.112Z,12.54
2023-04-03T20:45:43.593Z,12.65
2023-04-03T20:48:13.128Z,12.60
2023-04-03T20:50:41.197Z,12.55
2023-04-03T20:53:08.284Z,12.78
2023-04-03T20:55:35.067Z,12.90
2023-04-03T20:58:01.895Z,12.88
2023-04-03T21:00:32.120Z,12.89
2023-04-03T21:03:01.285Z,12.60
2023-04-03T21:05:30.320Z,12.90
2023-04-03T21:08:36.007Z,12.72
2023-04-03T21:11:40.092Z,12.72
2023-04-03T21:14:46.867Z,12.51
2023-04-03T21:17:13.447Z,12.54
2023-04-03T21:19:45.987Z,12.85
2023-04-03T21:22:13.591Z,12.67
2023-04-03T21:24:40.229Z,12.92
2023-04-03T21:27:06.701Z,12.78
2023-04-03T21:29:33.135Z,12.39
2023-04-03T21:32:01.536Z,12.43
2023-04-03T21:34:29.764Z,12.43
2023-04-03T21:37:04.609Z,12.53
2023-04-03T21:39:31.596Z,12.51
2023-04-03T21:41:58.017Z,12.13
2023-04-03T21:44:25.053Z,12.21
2023-04-03T21:46:54.723Z,12.28
2023-04-03T21:49:22.459Z,12.12
2023-04-03T21:51:51.324Z,12.07
2023-04-03T21:54:18.146Z,12.10
2023-04-03T21:56:44.683Z,12.26
2023-04-03T21:59:11.397Z,12.08
2023-04-03T22:01:38.020Z,11.82
2023-04-03T22:04:04.476Z,12.07
2023-04-03T22:06:31.171Z,12.27
2023-04-03T22:08:57.730Z,12.16
2023-04-03T22:11:27.547Z,12.28
2023-04-03T22:13:55.076Z,12.65
2023-04-03T22:16:23.431Z,12.42
2023-04-03T22:18:52.026Z,11.88
2023-04-03T22:21:18.770Z,12.21
2023-04-03T22:23:45.345Z,12.21
2023-04-03T22:26:13.132Z,11.99
2023-04-03T22:28:45.038Z,11.34
2023-04-03T22:31:13.540Z,11.68
2023-04-03T22:33:41.099Z,11.28
2023-04-03T22:36:09.268Z,11.64
2023-04-03T22:38:35.746Z,11.60
2023-04-03T22:41:03.605Z,11.86
2023-04-03T22:43:31.543Z,11.64
2023-04-03T22:45:58.387Z,11.89
2023-04-03T22:48:24.824Z,11.85
2023-04-03T22:50:51.632Z,11.62
2023-04-03T22:53:18.677Z,11.62
2023-04-03T22:55:53.339Z,11.74
2023-04-03T22:58:23.361Z,11.33
2023-04-03T23:00:49.839Z,11.43
2023-04-03T23:03:16.395Z,11.44
2023-04-03T23:05:42.811Z,10.42
2023-04-03T23:08:09.195Z,10.67
2023-04-03T23:10:35.705Z,10.50
2023-04-03T23:13:02.223Z,10.50
2023-04-03T23:15:28.628Z,10.54
2023-04-03T23:17:55.063Z,10.35
2023-04-03T23:20:21.535Z,9.96
2023-04-03T23:22:47.960Z,10.25
2023-04-03T23:25:14.367Z,10.24
2023-04-03T23:27:40.779Z,10.14
2023-04-03T23:30:07.883Z,10.20
2023-04-03T23:32:34.366Z,9.85
2023-04-03T23:35:00.875Z,10.02
2023-04-03T23:37:27.439Z,9.94
2023-04-03T23:39:53.918Z,10.17
2023-04-03T23:42:20.314Z,10.33
2023-04-03T23:44:46.752Z,9.80
2023-04-03T23:47:13.134Z,9.89
2023-04-03T23:49:39.539Z,9.58
2023-04-03T23:52:06.128Z,10.22
2023-04-03T23:54:32.536Z,9.88
2023-04-03T23:57:00.896Z,10.42
2023-04-03T23:59:27.613Z,10.54
